Time;durP1;ratioP1;P1;durP2;ratioP2;P2;SDS_P1;SDS_P2;PMS_P1;PMS_P2;Temp;Humidity;BMP_temperature;BMP_pressure;BME280_temperature;BME280_humidity;BME280_pressure;Samples;Min_cycle;Max_cycle;Signal;HPM_P1;HPM_P2
2021/06/20 20:23:26;;;;;;;7.68;4.28;;;;;;;27.65;46.43;100128.50;3448269;23;20512;-73
2021/06/20 20:25:09;;;;;;;8.32;3.97;;;;;;;27.62;46.53;100124.44;3413230;28;20070;-72
2021/06/20 20:26:49;;;;;;;8.23;3.80;;;;;;;27.65;46.87;100124.94;3425405;28;20038;-72
2021/06/20 20:28:30;;;;;;;11.37;4.03;;;;;;;27.61;46.55;100121.97;3428201;28;20509;-73
2021/06/20 20:30:22;;;;;;;6.03;3.88;;;;;;;27.62;47.10;100129.06;3430696;28;20109;-71
2021/06/20 20:32:03;;;;;;;14.85;4.95;;;;;;;27.61;46.55;100132.94;3428186;28;20386;-71
2021/06/20 20:33:43;;;;;;;9.60;4.53;;;;;;;27.58;46.79;100128.06;3416866;29;20043;-72
2021/06/20 20:35:28;;;;;;;5.53;4.43;;;;;;;27.60;46.72;100134.06;3416215;29;20158;-71
2021/06/20 20:37:12;;;;;;;12.35;4.72;;;;;;;27.60;46.64;100136.78;3416545;29;20457;-71
2021/06/20 20:38:53;;;;;;;9.07;4.07;;;;;;;27.60;46.60;100143.09;3417276;29;20449;-74
2021/06/20 20:40:35;;;;;;;12.33;4.17;;;;;;;27.59;46.72;100140.63;3416534;29;20067;-71
2021/06/20 20:42:16;;;;;;;11.32;5.43;;;;;;;27.56;46.80;100133.81;3416544;28;20044;-72
2021/06/20 20:43:56;;;;;;;8.50;4.97;;;;;;;27.56;46.66;100135.75;3417302;29;20520;-73
2021/06/20 20:45:38;;;;;;;10.17;5.40;;;;;;;27.54;46.80;100140.69;3416281;29;20506;-73
2021/06/20 20:47:18;;;;;;;9.75;5.53;;;;;;;27.51;47.13;100139.38;3417305;29;20047;-72
2021/06/20 20:48:59;;;;;;;8.60;4.70;;;;;;;27.49;47.01;100140.78;3416869;29;20039;-71
2021/06/20 20:50:40;;;;;;;8.70;4.53;;;;;;;27.47;47.34;100132.88;3417051;29;20049;-71
2021/06/20 20:52:21;;;;;;;7.03;4.68;;;;;;;27.48;47.06;100141.91;3416689;28;20083;-72
2021/06/20 20:54:02;;;;;;;7.77;5.00;;;;;;;27.48;47.41;100150.13;3415337;29;20043;-73
2021/06/20 20:55:43;;;;;;;6.47;4.47;;;;;;;27.48;47.17;100150.13;3412444;29;20049;-72
2021/06/20 20:57:27;;;;;;;6.00;4.97;;;;;;;27.47;47.10;100153.94;3416031;29;20295;-70
2021/06/20 20:59:08;;;;;;;12.55;5.47;;;;;;;27.47;47.18;100159.41;3402291;29;20052;-72
2021/06/20 21:00:49;;;;;;;10.57;5.93;;;;;;;27.46;47.47;100155.06;3413449;29;20043;-71
2021/06/20 21:02:33;;;;;;;10.00;5.97;;;;;;;27.40;47.49;100146.94;3415277;28;20287;-73
2021/06/20 21:04:15;;;;;;;11.75;6.28;;;;;;;27.44;47.48;100155.34;3415544;29;20446;-72
2021/06/20 21:05:57;;;;;;;9.25;5.22;;;;;;;27.43;48.34;100152.94;3413158;29;20046;-71
2021/06/20 21:07:38;;;;;;;11.77;5.35;;;;;;;27.42;47.89;100154.84;3416120;29;20498;-71
2021/06/20 21:09:19;;;;;;;12.23;4.60;;;;;;;27.41;48.09;100162.22;3415738;29;20039;-71
2021/06/20 21:11:00;;;;;;;8.30;5.17;;;;;;;27.39;47.69;100160.91;3416813;29;20118;-74
2021/06/20 21:12:41;;;;;;;7.65;4.45;;;;;;;27.40;48.30;100159.81;3416493;28;20142;-71
2021/06/20 21:14:22;;;;;;;6.57;4.77;;;;;;;27.38;47.94;100165.56;3416386;28;20047;-71
2021/06/20 21:16:03;;;;;;;14.00;4.90;;;;;;;27.37;48.18;100166.69;3416195;28;20133;-72
2021/06/20 21:17:44;;;;;;;6.15;4.63;;;;;;;27.35;48.18;100168.91;3416025;28;20098;-72
2021/06/20 21:19:25;;;;;;;7.23;4.87;;;;;;;27.31;48.05;100159.66;3416104;28;20502;-72
2021/06/20 21:21:06;;;;;;;12.75;4.78;;;;;;;27.32;48.15;100172.22;3416606;28;20298;-73
2021/06/20 21:22:48;;;;;;;8.35;3.80;;;;;;;27.31;48.31;100170.63;3416058;28;20055;-72
2021/06/20 21:24:32;;;;;;;12.07;5.15;;;;;;;27.31;48.34;100161.56;3416631;28;20039;-71
2021/06/20 21:26:13;;;;;;;11.30;4.45;;;;;;;27.27;48.31;100166.81;3416125;28;20101;-72
2021/06/20 21:27:54;;;;;;;12.40;5.18;;;;;;;27.27;48.52;100166.81;3417188;28;20097;-73
2021/06/20 21:29:34;;;;;;;9.93;5.03;;;;;;;27.23;48.26;100164.97;3417191;28;20510;-73
2021/06/20 21:31:17;;;;;;;12.77;4.67;;;;;;;27.23;48.13;100171.25;3416780;28;20039;-72
2021/06/20 21:33:04;;;;;;;8.73;4.50;;;;;;;27.22;48.79;100172.38;3416283;28;20417;-73
2021/06/20 21:34:44;;;;;;;9.55;4.57;;;;;;;27.19;48.42;100170.22;3416494;28;20047;-72
2021/06/20 21:36:25;;;;;;;9.50;4.97;;;;;;;27.16;48.31;100166.13;3416129;28;20130;-73
2021/06/20 21:38:06;;;;;;;7.22;4.40;;;;;;;27.16;48.46;100168.03;3416376;28;20187;-73
2021/06/20 21:39:47;;;;;;;11.27;4.93;;;;;;;27.13;48.97;100171.34;3415550;29;20042;-72
2021/06/20 21:41:28;;;;;;;7.63;4.93;;;;;;;27.10;48.43;100167.28;3415854;29;20133;-73
2021/06/20 21:43:12;;;;;;;9.95;4.50;;;;;;;27.10;48.79;100175.47;3416157;28;20039;-73
2021/06/20 21:44:53;;;;;;;7.22;5.10;;;;;;;27.08;48.57;100171.41;3416494;28;20046;-73
2021/06/20 21:46:34;;;;;;;9.30;4.03;;;;;;;27.08;49.06;100174.13;3415817;28;20075;-71
2021/06/20 21:48:15;;;;;;;11.70;4.75;;;;;;;27.06;48.66;100166.25;3415990;28;20114;-72
2021/06/20 21:49:56;;;;;;;11.87;4.83;;;;;;;27.04;48.84;100162.97;3415537;29;20095;-71
2021/06/20 21:51:37;;;;;;;6.83;4.93;;;;;;;27.04;48.92;100167.66;3416430;29;20454;-73
2021/06/20 21:53:21;;;;;;;7.07;4.93;;;;;;;27.03;49.27;100163.25;3416016;28;20797;-71
2021/06/20 21:55:01;;;;;;;9.18;4.57;;;;;;;27.03;48.95;100168.72;3414543;29;20121;-70
2021/06/20 21:56:42;;;;;;;7.87;4.20;;;;;;;27.03;49.46;100166.00;3415935;29;20094;-70
2021/06/20 21:58:23;;;;;;;12.87;4.80;;;;;;;27.03;49.04;100163.25;3414631;29;20291;-70
2021/06/20 22:00:15;;;;;;;8.00;4.57;;;;;;;27.02;49.17;100161.66;3415348;29;20180;-70
2021/06/20 22:01:57;;;;;;;9.15;4.60;;;;;;;26.99;49.15;100163.03;3415159;29;20051;-69
2021/06/20 22:03:37;;;;;;;5.47;4.47;;;;;;;26.97;49.18;100155.13;3415993;29;20133;-71
2021/06/20 22:05:22;;;;;;;6.88;4.15;;;;;;;26.97;49.34;100157.84;3415602;28;20073;-70
2021/06/20 22:07:02;;;;;;;5.03;3.80;;;;;;;26.98;49.52;100164.16;3415619;28;20178;-70
2021/06/20 22:08:43;;;;;;;10.73;4.82;;;;;;;26.98;49.34;100164.16;3416128;29;20491;-69
2021/06/20 22:10:25;;;;;;;6.50;4.60;;;;;;;26.96;49.31;100160.91;3415853;28;20057;-71
2021/06/20 22:12:06;;;;;;;;;;;;;;;27.01;48.98;100168.22;3416358;28;20126;-71
2021/06/20 22:13:47;;;;;;;6.00;4.10;;;;;;;26.91;49.80;100164.50;3415876;28;19922;-71
2021/06/20 22:15:32;;;;;;;6.53;4.40;;;;;;;26.90;49.73;100157.41;3416210;28;20039;-70
2021/06/20 22:17:12;;;;;;;7.68;4.32;;;;;;;26.89;49.48;100161.25;3415941;28;20141;-70
2021/06/20 22:18:54;;;;;;;10.20;4.80;;;;;;;26.89;49.32;100158.50;3416232;28;20039;-70
2021/06/20 22:20:35;;;;;;;7.18;3.55;;;;;;;26.88;49.32;100147.88;3415673;28;20039;-70
2021/06/20 22:22:16;;;;;;;6.60;4.47;;;;;;;26.85;49.34;100154.75;3415599;28;20073;-70
2021/06/20 22:23:57;;;;;;;10.35;4.53;;;;;;;26.85;49.70;100160.22;3415213;28;20055;-71
2021/06/20 22:25:41;;;;;;;4.90;4.23;;;;;;;26.82;50.06;100165.44;3415546;28;20129;-71
2021/06/20 22:27:22;;;;;;;7.15;4.30;;;;;;;26.81;49.76;100164.63;3415899;28;20054;-70
2021/06/20 22:29:03;;;;;;;6.45;4.32;;;;;;;26.79;49.96;100166.81;3415921;28;20494;-71
2021/06/20 22:30:44;;;;;;;4.47;3.50;;;;;;;26.80;49.75;100171.22;3415833;28;20050;-71
2021/06/20 22:32:24;;;;;;;6.53;3.90;;;;;;;26.79;49.66;100166.00;3415478;28;20051;-70
2021/06/20 22:34:05;;;;;;;6.03;4.00;;;;;;;26.80;49.57;100168.47;3415516;28;20395;-70
2021/06/20 22:35:46;;;;;;;6.80;4.70;;;;;;;26.79;49.25;100172.28;3415607;28;20187;-70
2021/06/20 22:37:27;;;;;;;6.15;4.00;;;;;;;26.80;49.32;100173.09;3415013;29;20050;-72
2021/06/20 22:39:10;;;;;;;5.50;3.77;;;;;;;26.79;49.58;100172.28;3415478;29;20050;-70
2021/06/20 22:40:51;;;;;;;5.57;3.97;;;;;;;26.79;49.32;100182.44;3414703;29;20059;-70
2021/06/20 22:42:32;;;;;;;9.95;4.28;;;;;;;26.79;49.41;100183.25;3415360;29;20047;-69
2021/06/20 22:44:12;;;;;;;7.30;4.17;;;;;;;26.79;49.51;100176.97;3415239;28;20134;-70
2021/06/20 22:45:53;;;;;;;4.80;3.97;;;;;;;26.79;49.59;100182.44;3415841;28;20445;-70
2021/06/20 22:47:34;;;;;;;6.47;4.20;;;;;;;26.76;49.32;100184.63;3413471;28;20054;-69
2021/06/20 22:49:15;;;;;;;4.95;4.20;;;;;;;26.77;49.20;100185.47;3411475;29;20039;-71
2021/06/20 22:50:55;;;;;;;11.70;4.10;;;;;;;26.77;49.11;100190.94;3415412;29;20050;-70
2021/06/20 22:52:36;;;;;;;8.20;4.77;;;;;;;26.73;49.29;100185.22;3415257;28;20050;-70
2021/06/20 22:54:17;;;;;;;13.37;4.20;;;;;;;26.72;49.63;100175.41;3415683;28;20053;-71
2021/06/20 22:56:01;;;;;;;8.90;4.57;;;;;;;26.73;49.38;100178.94;3400867;29;20039;-70
2021/06/20 22:57:42;;;;;;;8.85;3.83;;;;;;;26.70;49.92;100185.00;3413122;29;20043;-71
2021/06/20 22:59:23;;;;;;;8.57;4.53;;;;;;;26.70;49.81;100191.28;3415081;28;20094;-71
2021/06/20 23:01:04;;;;;;;8.83;3.53;;;;;;;26.70;49.79;100196.75;3414608;28;20051;-71
2021/06/20 23:02:45;;;;;;;7.85;4.35;;;;;;;26.68;49.85;100193.47;3415116;29;20070;-70
2021/06/20 23:04:26;;;;;;;9.23;4.47;;;;;;;26.63;49.51;100196.25;3414977;28;20054;-70
2021/06/20 23:06:07;;;;;;;5.60;4.30;;;;;;;26.61;49.76;100187.53;3415427;28;20047;-70
2021/06/20 23:07:52;;;;;;;8.90;4.43;;;;;;;26.65;49.75;100201.47;3414859;28;20043;-71
2021/06/20 23:09:33;;;;;;;5.63;3.80;;;;;;;26.66;49.72;100189.41;3415501;28;20094;-71
2021/06/20 23:11:13;;;;;;;5.93;4.00;;;;;;;26.66;49.99;100194.88;3415327;28;20129;-70
2021/06/20 23:12:55;;;;;;;6.85;4.20;;;;;;;26.68;49.53;100198.13;3415518;28;20086;-70
2021/06/20 23:14:36;;;;;;;6.30;4.03;;;;;;;26.64;49.38;100191.59;3414440;29;20051;-71
2021/06/20 23:16:17;;;;;;;6.70;4.40;;;;;;;26.68;49.43;100200.88;3414614;29;21121;-71
2021/06/20 23:17:57;;;;;;;10.37;4.50;;;;;;;26.66;49.58;100200.34;3415328;28;20077;-70
2021/06/20 23:19:41;;;;;;;4.83;4.00;;;;;;;26.63;49.35;100196.25;3414482;29;20043;-70
2021/06/20 23:21:21;;;;;;;5.45;4.15;;;;;;;26.59;49.36;100200.69;3414831;29;20126;-70
2021/06/20 23:23:03;;;;;;;6.33;4.07;;;;;;;26.60;49.20;100201.50;3414633;28;20055;-70
2021/06/20 23:24:44;;;;;;;7.05;4.45;;;;;;;26.58;49.34;100211.91;3413660;29;20050;-71
2021/06/20 23:26:25;;;;;;;16.63;4.70;;;;;;;26.53;49.64;100202.63;3414346;29;20502;-70
2021/06/20 23:28:07;;;;;;;5.93;4.00;;;;;;;26.53;49.61;100205.38;3414891;28;20058;-71
2021/06/20 23:29:51;;;;;;;4.75;3.80;;;;;;;26.54;49.35;100198.81;3415510;28;20039;-70
2021/06/20 23:31:34;;;;;;;6.50;3.95;;;;;;;26.56;49.84;100201.25;3414997;28;20054;-70
2021/06/20 23:33:15;;;;;;;8.82;3.90;;;;;;;26.57;49.51;100196.63;3415267;28;20468;-70
2021/06/20 23:34:55;;;;;;;6.57;4.63;;;;;;;26.57;49.84;100196.63;3414966;28;20047;-70
2021/06/20 23:36:36;;;;;;;6.13;4.67;;;;;;;26.56;49.81;100201.25;3415061;28;20050;-70
2021/06/20 23:38:19;;;;;;;6.17;4.00;;;;;;;26.54;49.41;100198.81;3415033;28;20434;-71
2021/06/20 23:40:04;;;;;;;9.15;4.18;;;;;;;26.52;49.78;100192.00;3413787;29;20561;-70
2021/06/20 23:41:45;;;;;;;4.50;3.97;;;;;;;26.52;50.01;100205.69;3414948;29;20506;-70
2021/06/20 23:43:26;;;;;;;7.03;4.77;;;;;;;26.48;50.14;100197.19;3415315;28;20039;-69
2021/06/20 23:45:09;;;;;;;7.13;4.67;;;;;;;26.47;49.69;100202.97;3414386;28;20051;-69
2021/06/20 23:46:49;;;;;;;6.50;4.47;;;;;;;26.44;49.79;100201.63;3414571;28;20660;-70
2021/06/20 23:48:30;;;;;;;7.10;4.00;;;;;;;26.43;50.15;100196.44;3413914;29;20047;-70
2021/06/20 23:50:12;;;;;;;12.17;4.33;;;;;;;26.43;49.77;100197.25;3414338;29;20490;-69
2021/06/20 23:51:52;;;;;;;8.88;4.60;;;;;;;26.43;49.75;100197.25;3414561;28;20058;-69
2021/06/20 23:53:34;;;;;;;8.07;3.93;;;;;;;26.42;49.62;100203.81;3414543;28;20499;-70
2021/06/20 23:55:15;;;;;;;11.73;4.65;;;;;;;26.40;49.97;100199.75;3414602;28;20054;-69
2021/06/20 23:56:56;;;;;;;5.35;4.10;;;;;;;26.41;49.88;100204.94;3413403;29;20075;-70
2021/06/20 23:58:37;;;;;;;10.13;4.40;;;;;;;26.38;49.99;100200.00;3415125;28;20416;-70
